Aviation Digital Data Service (ADDS)

Output produced by METARs form (0753 UTC 01 September 2015)
found at http://aviationweather.gov/adds/metars/
 
KLCH 010653Z 11003KT 10SM CLR 25/23 A3004 RMK AO2 RAB00E23 SLP179 P0000 T02500233